Time;durP1;ratioP1;P1;durP2;ratioP2;P2;SDS_P1;SDS_P2;PMS_P1;PMS_P2;Temp;Humidity;BMP_temperature;BMP_pressure;BME280_temperature;BME280_humidity;BME280_pressure;Samples;Min_cycle;Max_cycle;Signal;HPM_P1;HPM_P2
2023/12/09 00:01:08;;;;;;;15.23;8.95;;;5.80;91.30;;;;;;4986993;28;20117;-63
2023/12/09 00:03:33;;;;;;;15.35;8.93;;;5.80;91.30;;;;;;4989598;28;20482;-63
2023/12/09 00:05:59;;;;;;;15.52;9.10;;;5.80;91.30;;;;;;4988413;28;20050;-63
2023/12/09 00:08:24;;;;;;;12.68;7.97;;;5.80;91.30;;;;;;4988642;28;20375;-63
2023/12/09 00:10:50;;;;;;;15.75;9.98;;;5.80;91.30;;;;;;4989287;28;20077;-63
2023/12/09 00:13:16;;;;;;;15.95;9.43;;;5.80;91.30;;;;;;4988905;28;20030;-63
2023/12/09 00:15:42;;;;;;;16.63;10.38;;;5.80;91.30;;;;;;4987855;28;20098;-63
2023/12/09 00:18:08;;;;;;;15.40;9.15;;;5.80;91.30;;;;;;4969873;28;20079;-64
2023/12/09 00:20:34;;;;;;;17.50;10.75;;;5.80;91.30;;;;;;4988493;28;20445;-63
2023/12/09 00:22:59;;;;;;;15.45;8.73;;;5.80;91.30;;;;;;4988990;28;20037;-63
2023/12/09 00:25:25;;;;;;;16.48;9.98;;;5.80;91.30;;;;;;4988862;28;20081;-64
2023/12/09 00:27:50;;;;;;;16.05;9.68;;;5.80;91.30;;;;;;4989637;28;20028;-63
2023/12/09 00:30:16;;;;;;;16.63;10.15;;;5.80;91.30;;;;;;4988359;28;20072;-61
2023/12/09 00:32:42;;;;;;;17.13;10.25;;;5.80;91.30;;;;;;4989873;28;20501;-63
2023/12/09 00:35:08;;;;;;;19.80;10.35;;;5.80;91.20;;;;;;4987142;28;20038;-63
2023/12/09 00:37:33;;;;;;;16.55;9.48;;;5.80;91.20;;;;;;4984790;28;20034;-62
2023/12/09 00:39:59;;;;;;;16.88;9.55;;;5.80;91.10;;;;;;4988604;28;20394;-63
2023/12/09 00:42:24;;;;;;;16.77;10.05;;;5.80;91.10;;;;;;4993312;28;20286;-63
2023/12/09 00:44:50;;;;;;;16.42;9.43;;;5.80;91.10;;;;;;4990595;28;20071;-64
2023/12/09 00:47:16;;;;;;;16.42;9.75;;;5.80;91.10;;;;;;4988050;28;20106;-64
2023/12/09 00:49:41;;;;;;;16.08;9.63;;;5.70;91.10;;;;;;4986809;28;20033;-63
2023/12/09 00:52:07;;;;;;;13.70;9.02;;;5.80;91.20;;;;;;4984500;28;20168;-64
2023/12/09 00:54:32;;;;;;;15.13;9.25;;;5.80;91.20;;;;;;4989354;28;20458;-63
2023/12/09 00:56:58;;;;;;;16.35;10.27;;;5.80;91.20;;;;;;4983382;28;20045;-64
2023/12/09 00:59:23;;;;;;;18.45;10.75;;;5.80;91.10;;;;;;4985718;28;20033;-64
2023/12/09 01:01:49;;;;;;;14.80;9.48;;;5.70;91.10;;;;;;4990353;28;20389;-64
2023/12/09 01:04:15;;;;;;;15.55;9.43;;;5.70;91.10;;;;;;4989909;28;20030;-64
2023/12/09 01:06:40;;;;;;;15.70;9.93;;;5.70;91.20;;;;;;4991972;28;20401;-64
2023/12/09 01:09:06;;;;;;;15.73;9.63;;;5.60;91.10;;;;;;4985055;28;20042;-64
2023/12/09 01:11:31;;;;;;;15.55;9.45;;;5.70;91.30;;;;;;4984202;28;20161;-63
2023/12/09 01:13:57;;;;;;;15.65;9.32;;;5.70;91.30;;;;;;4984155;28;20035;-63
2023/12/09 01:16:22;;;;;;;15.45;9.57;;;5.60;91.30;;;;;;4984406;28;20026;-63
2023/12/09 01:18:48;;;;;;;14.57;9.48;;;5.70;91.30;;;;;;4986381;28;20029;-63
2023/12/09 01:21:13;;;;;;;14.23;9.07;;;5.60;91.30;;;;;;4983717;28;20557;-64
2023/12/09 01:23:39;;;;;;;12.77;8.43;;;5.60;91.30;;;;;;4983598;28;20053;-63
2023/12/09 01:26:07;;;;;;;13.85;8.60;;;5.70;91.30;;;;;;4985126;28;20039;-63
2023/12/09 01:28:32;;;;;;;14.75;8.90;;;5.60;91.30;;;;;;4986424;28;20382;-64
2023/12/09 01:30:58;;;;;;;17.85;9.55;;;5.60;91.30;;;;;;4985184;28;20038;-63
2023/12/09 01:33:26;;;;;;;15.73;9.70;;;5.60;91.30;;;;;;4983659;28;20104;-63
2023/12/09 01:35:51;;;;;;;16.50;9.73;;;5.60;91.30;;;;;;4984787;28;20401;-64
2023/12/09 01:38:17;;;;;;;17.52;9.48;;;5.60;91.30;;;;;;4983531;28;20023;-63
2023/12/09 01:40:42;;;;;;;19.40;10.00;;;5.60;91.40;;;;;;4989944;28;20536;-62
2023/12/09 01:43:09;;;;;;;21.63;10.00;;;5.60;91.50;;;;;;4990747;28;20504;-64
2023/12/09 01:45:35;;;;;;;18.52;10.07;;;5.60;91.60;;;;;;4993136;28;20026;-63
2023/12/09 01:48:01;;;;;;;18.08;9.82;;;5.60;91.60;;;;;;4992772;28;20475;-64
2023/12/09 01:50:30;;;;;;;18.50;9.95;;;5.60;91.60;;;;;;4992207;28;20386;-63
2023/12/09 01:52:56;;;;;;;20.58;9.70;;;5.50;91.70;;;;;;4992688;28;20065;-64
2023/12/09 01:55:22;;;;;;;18.95;10.93;;;5.60;91.80;;;;;;4993251;28;20030;-63
2023/12/09 01:57:48;;;;;;;20.02;9.80;;;5.50;91.80;;;;;;4992683;28;20049;-64
2023/12/09 02:00:14;;;;;;;20.95;10.13;;;5.60;91.80;;;;;;4989169;28;20027;-63
2023/12/09 02:02:40;;;;;;;17.08;10.02;;;5.60;91.80;;;;;;4992963;28;20065;-63
2023/12/09 02:05:06;;;;;;;18.80;10.15;;;5.60;91.80;;;;;;4991898;28;20454;-63
2023/12/09 02:07:33;;;;;;;16.83;9.70;;;5.60;91.80;;;;;;4992787;28;20037;-64
2023/12/09 02:09:59;;;;;;;16.38;9.60;;;5.60;91.80;;;;;;4991881;28;20398;-64
2023/12/09 02:12:57;;;;;;;18.77;10.15;;;5.60;91.80;;;;;;4992646;28;20056;-64
2023/12/09 02:15:33;;;;;;;18.38;10.30;;;5.60;91.80;;;;;;4987650;28;20113;-64
2023/12/09 02:18:03;;;;;;;15.82;9.13;;;5.60;91.70;;;;;;4992584;28;20038;-63
2023/12/09 02:20:29;;;;;;;15.55;9.38;;;5.60;91.80;;;;;;4992577;28;20034;-63
2023/12/09 02:23:13;;;;;;;16.75;9.60;;;5.60;91.80;;;;;;4992217;28;20026;-64
2023/12/09 02:25:40;;;;;;;18.77;10.38;;;5.60;91.90;;;;;;4992323;28;20026;-64
2023/12/09 02:28:20;;;;;;;16.05;9.70;;;5.60;91.80;;;;;;4992914;28;20022;-64
2023/12/09 02:30:58;;;;;;;17.33;10.10;;;5.60;91.90;;;;;;4990516;28;20069;-64
2023/12/09 02:33:25;;;;;;;15.00;8.55;;;5.60;91.80;;;;;;4992088;28;20038;-64
2023/12/09 02:35:53;;;;;;;16.17;9.00;;;5.60;91.80;;;;;;4991549;28;20042;-64
2023/12/09 02:38:21;;;;;;;14.18;7.97;;;5.60;91.90;;;;;;4992386;28;20041;-64
2023/12/09 02:40:47;;;;;;;17.50;9.40;;;5.60;92.00;;;;;;4991239;28;20085;-64
2023/12/09 02:43:13;;;;;;;19.77;9.73;;;5.60;92.00;;;;;;4992365;28;20085;-64
2023/12/09 02:45:39;;;;;;;17.70;8.77;;;5.60;92.00;;;;;;4988955;28;20032;-63
2023/12/09 02:48:05;;;;;;;18.13;8.80;;;5.60;92.00;;;;;;4992166;28;20026;-63
2023/12/09 02:50:31;;;;;;;19.40;8.63;;;5.60;92.10;;;;;;4991300;28;20099;-64
2023/12/09 02:52:56;;;;;;;13.45;7.82;;;5.60;92.10;;;;;;4991078;28;20030;-64
2023/12/09 02:55:22;;;;;;;15.27;7.82;;;5.60;92.10;;;;;;4992028;28;20026;-64
2023/12/09 02:57:48;;;;;;;15.77;8.00;;;5.70;92.10;;;;;;4991660;28;20528;-64
2023/12/09 03:00:14;;;;;;;15.18;7.85;;;5.70;92.00;;;;;;4985636;28;20125;-64
2023/12/09 03:02:39;;;;;;;15.00;8.50;;;5.70;92.00;;;;;;4990834;28;20121;-64
2023/12/09 03:05:05;;;;;;;18.83;8.50;;;5.70;92.00;;;;;;4990756;28;20054;-64
2023/12/09 03:07:31;;;;;;;17.23;8.43;;;5.70;91.90;;;;;;4991589;28;20585;-64
2023/12/09 03:09:57;;;;;;;15.30;7.80;;;5.70;91.90;;;;;;4974063;28;20053;-64
2023/12/09 03:12:22;;;;;;;16.50;8.23;;;5.70;91.90;;;;;;4991825;28;20031;-64
2023/12/09 03:14:48;;;;;;;17.88;8.65;;;5.70;91.90;;;;;;4991759;28;20053;-64
2023/12/09 03:17:14;;;;;;;13.68;7.65;;;5.70;91.90;;;;;;4991772;28;20489;-64
2023/12/09 03:19:39;;;;;;;16.85;8.77;;;5.70;92.00;;;;;;4990820;28;20078;-64
2023/12/09 03:22:05;;;;;;;16.10;8.55;;;5.70;91.90;;;;;;4991363;28;20027;-64
2023/12/09 03:24:31;;;;;;;15.23;8.50;;;5.70;91.90;;;;;;4990642;28;20053;-64
2023/12/09 03:26:56;;;;;;;15.02;8.48;;;5.70;91.80;;;;;;4991106;28;20490;-64
2023/12/09 03:29:22;;;;;;;19.92;8.68;;;5.80;91.90;;;;;;4991305;28;20045;-64
2023/12/09 03:31:48;;;;;;;16.83;8.90;;;5.70;91.80;;;;;;4990775;28;20520;-64
2023/12/09 03:34:14;;;;;;;16.90;8.88;;;5.70;91.80;;;;;;4990811;28;20030;-64
2023/12/09 03:36:40;;;;;;;22.08;9.77;;;5.80;91.90;;;;;;4990767;28;20115;-64
2023/12/09 03:39:06;;;;;;;26.33;10.25;;;5.80;91.80;;;;;;4991431;28;20114;-64
2023/12/09 03:41:32;;;;;;;19.65;9.43;;;5.70;91.70;;;;;;4991030;28;20038;-64
2023/12/09 03:43:58;;;;;;;23.83;9.80;;;5.70;91.70;;;;;;4990384;28;20528;-63
2023/12/09 03:46:24;;;;;;;26.25;9.57;;;5.80;91.70;;;;;;4991103;28;20061;-64
2023/12/09 03:48:49;;;;;;;19.10;8.50;;;5.80;91.70;;;;;;4990701;28;20061;-64
2023/12/09 03:51:15;;;;;;;20.05;8.75;;;5.80;91.70;;;;;;4987706;28;20497;-64
2023/12/09 03:53:41;;;;;;;18.42;9.00;;;5.70;91.70;;;;;;4990525;28;20037;-64
2023/12/09 03:56:08;;;;;;;20.17;8.60;;;5.70;91.70;;;;;;4991442;28;20557;-64
2023/12/09 03:58:34;;;;;;;38.85;9.43;;;5.70;91.70;;;;;;4990716;28;20105;-64
2023/12/09 04:01:00;;;;;;;25.02;8.60;;;5.70;91.70;;;;;;4988162;28;20478;-63
2023/12/09 04:03:27;;;;;;;20.50;8.77;;;5.70;91.70;;;;;;4990639;28;20558;-64
2023/12/09 04:05:53;;;;;;;20.05;8.80;;;5.70;91.70;;;;;;4990231;28;20041;-64
2023/12/09 04:08:19;;;;;;;18.42;8.43;;;5.70;91.80;;;;;;4989412;28;20109;-63
2023/12/09 04:10:44;;;;;;;18.65;9.15;;;5.70;91.80;;;;;;4988024;28;20470;-63
2023/12/09 04:13:10;;;;;;;35.20;8.63;;;5.70;91.90;;;;;;4991061;28;20026;-65
2023/12/09 04:15:38;;;;;;;19.38;8.80;;;5.70;91.90;;;;;;4994498;28;20405;-63
2023/12/09 04:18:04;;;;;;;81.78;8.82;;;5.70;92.00;;;;;;4994005;28;20065;-63
2023/12/09 04:20:33;;;;;;;29.55;8.32;;;5.70;91.90;;;;;;4994431;28;20054;-64
2023/12/09 04:23:01;;;;;;;50.47;8.55;;;5.70;91.90;;;;;;4994380;28;20034;-63
2023/12/09 04:25:26;;;;;;;74.85;8.27;;;5.70;91.90;;;;;;4994969;28;20164;-63
2023/12/09 04:27:52;;;;;;;26.10;8.23;;;5.70;92.00;;;;;;4994071;28;20434;-63
2023/12/09 04:30:18;;;;;;;14.85;7.50;;;5.70;92.00;;;;;;4994703;28;20022;-63
2023/12/09 04:32:43;;;;;;;15.75;8.27;;;5.70;92.00;;;;;;4995332;28;20034;-64
2023/12/09 04:35:09;;;;;;;15.20;7.78;;;5.70;91.90;;;;;;4994406;28;20031;-63
2023/12/09 04:37:35;;;;;;;17.58;8.70;;;5.70;91.90;;;;;;4994137;28;20077;-63
2023/12/09 04:40:01;;;;;;;15.75;7.63;;;5.80;91.90;;;;;;4994268;28;20038;-64
2023/12/09 04:42:30;;;;;;;14.45;7.47;;;5.70;91.80;;;;;;4994651;28;20601;-64
2023/12/09 04:44:56;;;;;;;14.57;7.35;;;5.70;91.80;;;;;;4994353;28;20026;-64
2023/12/09 04:47:21;;;;;;;12.57;7.05;;;5.70;91.70;;;;;;4994672;28;20037;-63
2023/12/09 04:49:47;;;;;;;15.48;7.38;;;5.80;91.70;;;;;;4993435;28;20045;-64
2023/12/09 04:52:13;;;;;;;35.08;7.65;;;5.80;91.70;;;;;;4994135;28;20041;-63
2023/12/09 04:54:38;;;;;;;31.33;6.78;;;5.80;91.70;;;;;;4993165;28;20030;-64
2023/12/09 04:57:04;;;;;;;18.80;8.25;;;5.70;91.70;;;;;;4993571;28;20101;-64
2023/12/09 04:59:30;;;;;;;49.10;7.07;;;5.70;91.60;;;;;;4993125;28;20034;-63
2023/12/09 05:01:56;;;;;;;15.23;7.18;;;5.70;92.10;;;;;;4989996;28;20023;-63
2023/12/09 05:04:22;;;;;;;14.48;6.05;;;5.70;91.70;;;;;;4993648;28;20046;-64
2023/12/09 05:06:47;;;;;;;13.85;7.53;;;5.70;91.70;;;;;;4993888;28;20034;-63
2023/12/09 05:09:14;;;;;;;14.65;7.47;;;5.70;91.70;;;;;;4993945;28;20578;-63
2023/12/09 05:11:39;;;;;;;15.75;7.43;;;5.70;91.70;;;;;;4994058;28;20023;-63
2023/12/09 05:14:05;;;;;;;16.27;7.72;;;5.70;91.70;;;;;;4977252;28;20490;-63
2023/12/09 05:16:32;;;;;;;12.55;7.10;;;5.70;91.70;;;;;;4994513;28;20117;-62
2023/12/09 05:18:58;;;;;;;15.57;7.28;;;5.80;91.70;;;;;;4993730;28;20042;-63
2023/12/09 05:21:23;;;;;;;17.25;8.10;;;5.70;91.70;;;;;;4993612;28;20034;-64
2023/12/09 05:23:49;;;;;;;18.88;8.82;;;5.80;91.60;;;;;;4992878;28;20050;-64
2023/12/09 05:26:25;;;;;;;17.63;8.30;;;5.70;91.60;;;;;;4993545;28;20069;-64
2023/12/09 05:28:52;;;;;;;19.65;9.43;;;5.70;91.60;;;;;;4993289;28;20026;-64
2023/12/09 05:31:18;;;;;;;21.20;9.25;;;5.70;91.60;;;;;;4992647;28;20479;-63
2023/12/09 05:33:43;;;;;;;23.60;10.02;;;5.70;91.70;;;;;;4993380;28;20042;-63
2023/12/09 05:36:09;;;;;;;24.27;10.80;;;5.70;91.70;;;;;;4993435;28;20432;-64
2023/12/09 05:38:35;;;;;;;27.90;11.27;;;5.70;91.70;;;;;;4993572;28;20112;-64
2023/12/09 05:41:01;;;;;;;29.85;11.57;;;5.70;91.70;;;;;;4993010;28;20054;-63
2023/12/09 05:43:27;;;;;;;39.35;14.57;;;5.70;91.70;;;;;;4993460;28;20050;-63
2023/12/09 05:45:53;;;;;;;27.27;12.68;;;5.70;91.70;;;;;;4992666;28;20034;-64
2023/12/09 05:48:19;;;;;;;28.60;11.80;;;5.70;91.70;;;;;;4975614;28;20022;-63
2023/12/09 05:50:45;;;;;;;24.25;11.25;;;5.70;91.70;;;;;;4993082;28;20470;-63
2023/12/09 05:53:13;;;;;;;23.67;11.15;;;5.70;91.70;;;;;;4989706;28;20033;-63
2023/12/09 05:55:38;;;;;;;27.83;10.25;;;5.70;91.70;;;;;;4991296;28;20101;-63
2023/12/09 05:58:04;;;;;;;24.45;10.32;;;5.70;91.70;;;;;;4990954;28;20495;-63
2023/12/09 06:00:30;;;;;;;36.80;10.52;;;5.70;91.70;;;;;;4992626;28;20030;-63
2023/12/09 06:02:55;;;;;;;30.88;11.35;;;5.70;91.60;;;;;;4991997;28;20065;-63
2023/12/09 06:05:21;;;;;;;22.77;10.15;;;5.70;91.70;;;;;;4988340;28;20034;-63
2023/12/09 06:07:46;;;;;;;22.00;10.23;;;5.60;91.60;;;;;;4970919;28;20019;-63
2023/12/09 06:10:12;;;;;;;18.85;9.23;;;5.60;91.70;;;;;;4988779;28;20041;-63
2023/12/09 06:12:38;;;;;;;19.02;9.65;;;5.60;91.80;;;;;;4971211;28;20027;-63
2023/12/09 06:15:05;;;;;;;23.45;9.43;;;5.60;91.80;;;;;;4985534;28;20037;-63
2023/12/09 06:17:30;;;;;;;21.80;9.82;;;5.50;91.90;;;;;;4989321;28;20085;-63
2023/12/09 06:19:56;;;;;;;23.67;10.18;;;5.50;92.00;;;;;;4992281;28;20030;-63
2023/12/09 06:22:22;;;;;;;25.80;10.63;;;5.50;92.00;;;;;;4975141;28;20469;-63
2023/12/09 06:24:47;;;;;;;24.35;10.27;;;5.50;92.10;;;;;;4992009;28;20034;-63
2023/12/09 06:27:13;;;;;;;26.67;10.68;;;5.50;92.20;;;;;;4991648;28;20153;-63
2023/12/09 06:29:38;;;;;;;23.67;10.43;;;5.50;92.20;;;;;;4992380;28;20105;-64
2023/12/09 06:32:05;;;;;;;19.27;9.40;;;5.60;92.20;;;;;;4992104;28;20085;-63
2023/12/09 06:34:30;;;;;;;25.58;10.98;;;5.60;92.20;;;;;;4992349;28;20084;-64
2023/12/09 06:36:56;;;;;;;49.40;11.05;;;5.60;92.20;;;;;;4974441;28;20034;-63
2023/12/09 06:39:22;;;;;;;27.88;11.80;;;5.60;92.20;;;;;;4991566;28;20069;-64
2023/12/09 06:41:48;;;;;;;24.80;12.30;;;5.60;92.20;;;;;;4991820;28;20320;-64
2023/12/09 06:44:14;;;;;;;35.00;13.05;;;5.70;92.20;;;;;;4991171;28;20068;-65
2023/12/09 06:46:40;;;;;;;26.38;12.30;;;5.70;92.20;;;;;;4991870;28;20058;-64
2023/12/09 06:49:06;;;;;;;29.20;12.63;;;5.70;92.20;;;;;;4991144;28;20032;-64
2023/12/09 06:51:32;;;;;;;24.25;11.70;;;5.70;92.20;;;;;;4991508;28;20028;-64
2023/12/09 06:53:57;;;;;;;25.98;12.00;;;5.70;92.30;;;;;;4991600;28;20022;-64
2023/12/09 06:56:26;;;;;;;26.50;12.52;;;5.70;92.30;;;;;;4991735;28;20026;-64
2023/12/09 06:58:58;;;;;;;27.60;12.00;;;5.70;92.30;;;;;;5063278;28;21103;-63
2023/12/09 07:01:25;;;;;;;23.50;11.55;;;5.80;92.30;;;;;;5058311;28;20071;-63
2023/12/09 07:03:51;;;;;;;31.40;12.65;;;5.80;92.20;;;;;;5043953;28;20029;-63
2023/12/09 07:06:24;;;;;;;24.70;12.30;;;5.80;92.20;;;;;;5055846;28;20070;-63
2023/12/09 07:08:50;;;;;;;34.47;12.30;;;5.80;92.30;;;;;;5050232;28;20086;-63
2023/12/09 07:11:17;;;;;;;23.90;11.23;;;5.80;92.30;;;;;;5059112;28;20507;-63
2023/12/09 07:13:43;;;;;;;31.35;12.07;;;5.80;92.20;;;;;;5049246;28;20043;-63
2023/12/09 07:16:10;;;;;;;19.92;10.43;;;5.80;92.30;;;;;;5051844;28;20528;-63
2023/12/09 07:18:37;;;;;;;22.30;10.60;;;5.80;92.20;;;;;;5051710;28;20033;-63
2023/12/09 07:21:03;;;;;;;20.85;10.40;;;5.80;92.20;;;;;;5050326;28;20489;-63
2023/12/09 07:23:28;;;;;;;25.00;10.75;;;5.80;92.20;;;;;;5046649;28;20025;-63
2023/12/09 07:25:55;;;;;;;22.60;12.65;;;5.90;92.30;;;;;;5031224;28;20032;-62
2023/12/09 07:28:21;;;;;;;28.77;13.00;;;5.90;92.30;;;;;;5031772;28;20842;-64
2023/12/09 07:30:46;;;;;;;25.77;11.85;;;5.90;92.30;;;;;;5033402;28;20048;-63
2023/12/09 07:33:12;;;;;;;23.13;12.05;;;5.90;92.30;;;;;;5039729;28;20060;-63
2023/12/09 07:35:39;;;;;;;20.98;11.57;;;5.90;92.30;;;;;;5043078;28;20056;-63
2023/12/09 07:38:08;;;;;;;20.27;11.20;;;5.90;92.40;;;;;;5040523;28;20036;-63
2023/12/09 07:40:33;;;;;;;24.27;12.90;;;5.90;92.40;;;;;;5031744;28;20027;-64
2023/12/09 07:42:59;;;;;;;21.98;11.88;;;5.90;92.40;;;;;;5043728;28;20096;-64
2023/12/09 07:45:25;;;;;;;22.48;11.82;;;6.00;92.50;;;;;;5040569;28;20029;-64
2023/12/09 07:47:50;;;;;;;21.27;12.15;;;6.00;92.50;;;;;;5043120;28;20029;-63
2023/12/09 07:50:17;;;;;;;23.52;12.43;;;6.00;92.50;;;;;;5042893;28;20025;-64
2023/12/09 07:52:43;;;;;;;22.02;12.23;;;6.00;92.50;;;;;;5042326;28;20029;-63
2023/12/09 07:55:09;;;;;;;21.58;12.55;;;6.00;92.60;;;;;;5036253;28;20036;-64
2023/12/09 07:57:34;;;;;;;22.30;12.73;;;6.10;92.60;;;;;;5039179;28;20385;-64
2023/12/09 08:00:00;;;;;;;20.85;12.25;;;6.10;92.60;;;;;;5034529;28;20091;-63
2023/12/09 08:02:26;;;;;;;22.33;13.23;;;6.10;92.60;;;;;;5033826;28;20056;-64
2023/12/09 08:04:51;;;;;;;23.88;13.52;;;6.20;92.60;;;;;;5032694;28;20029;-64
2023/12/09 08:07:17;;;;;;;23.55;12.82;;;6.10;92.60;;;;;;5039112;28;20103;-63
2023/12/09 08:09:42;;;;;;;25.08;14.02;;;6.20;92.50;;;;;;5028593;28;20037;-63
2023/12/09 08:12:08;;;;;;;23.33;13.52;;;6.30;92.50;;;;;;5028277;28;20405;-63
2023/12/09 08:14:34;;;;;;;24.60;14.50;;;6.20;92.50;;;;;;5030577;28;20025;-64
2023/12/09 08:16:59;;;;;;;24.00;14.25;;;6.20;92.50;;;;;;5030274;28;20048;-63
2023/12/09 08:19:25;;;;;;;24.90;14.65;;;6.20;92.50;;;;;;5024863;28;20476;-64
2023/12/09 08:21:50;;;;;;;24.48;14.52;;;6.30;92.60;;;;;;5022243;28;20407;-64
2023/12/09 08:24:16;;;;;;;24.95;14.18;;;6.30;92.60;;;;;;5015712;28;20038;-64
2023/12/09 08:26:42;;;;;;;23.55;14.88;;;6.30;92.60;;;;;;5018675;28;20029;-63
2023/12/09 08:29:14;;;;;;;22.38;13.32;;;6.30;92.50;;;;;;5025074;28;20074;-63
2023/12/09 08:31:40;;;;;;;25.48;15.73;;;6.30;92.60;;;;;;5028861;28;20469;-63
2023/12/09 08:34:05;;;;;;;24.50;15.07;;;6.30;92.50;;;;;;5023719;28;20026;-64
2023/12/09 08:36:31;;;;;;;24.30;15.05;;;6.40;92.50;;;;;;5016678;28;20083;-63
2023/12/09 08:38:56;;;;;;;25.10;15.00;;;6.40;92.50;;;;;;5030786;28;20029;-63
2023/12/09 08:41:22;;;;;;;25.23;15.07;;;6.40;92.50;;;;;;5028141;28;20414;-63
2023/12/09 08:43:52;;;;;;;24.13;15.48;;;6.50;92.80;;;;;;5020795;28;20109;-65
2023/12/09 08:46:18;;;;;;;24.73;15.43;;;6.40;92.40;;;;;;5018661;28;20030;-63
2023/12/09 08:48:44;;;;;;;24.90;14.98;;;6.50;92.40;;;;;;5025579;28;20559;-63
2023/12/09 08:51:10;;;;;;;26.10;14.95;;;6.50;92.40;;;;;;5024541;28;20029;-63
2023/12/09 08:53:36;;;;;;;23.08;14.65;;;6.50;92.30;;;;;;5033850;28;20032;-65
2023/12/09 08:56:01;;;;;;;27.58;15.77;;;6.50;92.30;;;;;;5028246;28;20033;-62
2023/12/09 08:58:27;;;;;;;23.75;14.82;;;6.50;92.30;;;;;;5027775;28;20037;-63
2023/12/09 09:00:52;;;;;;;23.98;14.98;;;6.60;92.30;;;;;;5031544;28;20473;-63
2023/12/09 09:03:18;;;;;;;26.08;14.82;;;6.60;92.30;;;;;;5031722;28;20947;-63
2023/12/09 09:05:44;;;;;;;23.65;14.77;;;6.60;92.30;;;;;;5021159;28;20044;-64
2023/12/09 09:08:09;;;;;;;24.65;16.33;;;6.60;92.20;;;;;;5024295;28;20025;-64
2023/12/09 09:10:35;;;;;;;26.88;16.30;;;6.60;92.20;;;;;;5020194;28;20457;-64
2023/12/09 09:13:00;;;;;;;26.77;17.00;;;6.70;92.20;;;;;;5022110;28;20091;-64
2023/12/09 09:15:27;;;;;;;26.08;15.93;;;6.70;92.20;;;;;;5021228;28;20033;-63
2023/12/09 09:17:52;;;;;;;28.38;17.85;;;6.60;92.20;;;;;;5019185;28;20036;-63
2023/12/09 09:20:18;;;;;;;29.15;17.75;;;6.70;92.20;;;;;;5031445;28;20100;-63
2023/12/09 09:22:47;;;;;;;29.40;17.25;;;6.70;92.20;;;;;;5022107;28;20037;-63
2023/12/09 09:25:13;;;;;;;25.52;15.63;;;6.70;92.20;;;;;;5023364;28;20039;-63
2023/12/09 09:27:38;;;;;;;26.50;16.27;;;6.70;92.20;;;;;;5028407;28;20029;-63
2023/12/09 09:30:05;;;;;;;25.00;15.68;;;6.70;92.10;;;;;;5028418;28;20038;-63
2023/12/09 09:32:31;;;;;;;26.58;16.20;;;6.80;92.20;;;;;;5020934;28;20041;-62
2023/12/09 09:34:56;;;;;;;27.27;18.10;;;6.80;92.20;;;;;;5023530;28;20029;-63
2023/12/09 09:37:23;;;;;;;23.58;15.70;;;6.70;92.20;;;;;;5025875;28;20401;-64
2023/12/09 09:39:48;;;;;;;24.42;15.73;;;6.80;92.20;;;;;;5025655;28;20565;-63
2023/12/09 09:42:34;;;;;;;23.65;14.63;;;6.70;92.20;;;;;;5036265;28;20033;-63
2023/12/09 09:45:22;;;;;;;23.70;14.60;;;6.80;92.40;;;;;;5030750;28;20033;-63
2023/12/09 09:47:51;;;;;;;19.63;12.90;;;6.80;92.30;;;;;;5025995;28;20109;-63
2023/12/09 09:50:24;;;;;;;23.10;14.32;;;6.80;92.30;;;;;;5017124;28;20026;-63
2023/12/09 09:52:51;;;;;;;22.67;14.00;;;6.80;92.30;;;;;;5025998;28;20114;-63
2023/12/09 09:55:19;;;;;;;20.27;13.13;;;6.80;92.30;;;;;;5021731;28;20025;-63
2023/12/09 09:57:45;;;;;;;21.45;14.63;;;6.80;92.30;;;;;;5020033;28;20034;-62
2023/12/09 10:00:15;;;;;;;20.35;14.00;;;6.80;92.30;;;;;;5022330;28;20129;-63
2023/12/09 10:02:49;;;;;;;21.30;14.15;;;6.90;92.30;;;;;;5027186;28;20032;-63
2023/12/09 10:05:17;;;;;;;20.67;14.10;;;6.90;92.40;;;;;;5028755;28;20033;-64
2023/12/09 10:07:43;;;;;;;19.45;13.52;;;6.90;92.30;;;;;;5021524;28;20278;-65
2023/12/09 10:10:14;;;;;;;19.27;13.10;;;6.90;92.30;;;;;;5021704;28;20044;-65
2023/12/09 10:12:40;;;;;;;21.63;13.35;;;7.00;92.30;;;;;;5022728;28;21336;-65
2023/12/09 10:15:06;;;;;;;20.88;13.32;;;6.90;92.30;;;;;;5033470;28;20511;-65
2023/12/09 10:17:32;;;;;;;19.33;12.93;;;7.00;92.30;;;;;;5029564;28;20025;-62
2023/12/09 10:19:58;;;;;;;16.52;12.63;;;7.00;92.70;;;;;;5024785;28;20499;-65
2023/12/09 10:22:25;;;;;;;19.20;13.18;;;7.00;92.30;;;;;;5023066;28;20025;-63
2023/12/09 10:24:52;;;;;;;18.42;13.05;;;7.00;92.30;;;;;;5019946;28;20115;-63
2023/12/09 10:27:25;;;;;;;18.17;13.18;;;7.10;92.30;;;;;;5025124;28;20040;-63
2023/12/09 10:29:52;;;;;;;21.70;14.27;;;7.10;92.70;;;;;;5022811;28;20053;-65
2023/12/09 10:32:18;;;;;;;19.42;14.35;;;7.10;92.20;;;;;;5029557;28;20028;-65
2023/12/09 10:34:43;;;;;;;20.85;14.77;;;7.10;92.30;;;;;;5022187;28;20029;-65
2023/12/09 10:37:09;;;;;;;20.58;14.80;;;7.10;92.30;;;;;;5034787;28;20087;-65
2023/12/09 10:39:35;;;;;;;20.15;14.32;;;7.20;92.40;;;;;;5029366;28;20069;-62
2023/12/09 10:42:03;;;;;;;18.30;13.18;;;7.20;92.50;;;;;;5032952;28;20049;-65
2023/12/09 10:44:30;;;;;;;20.80;13.88;;;7.20;92.50;;;;;;5031252;28;20020;-64
2023/12/09 10:46:59;;;;;;;17.88;12.43;;;7.30;92.50;;;;;;5023743;28;20048;-65
2023/12/09 10:49:24;;;;;;;17.60;11.75;;;7.40;92.50;;;;;;5019656;28;20097;-65
2023/12/09 10:51:50;;;;;;;19.77;12.23;;;7.40;92.50;;;;;;5012105;28;20124;-62
2023/12/09 10:54:15;;;;;;;17.63;11.93;;;7.50;92.40;;;;;;5020152;28;20029;-65
2023/12/09 10:56:43;;;;;;;21.13;12.20;;;7.40;92.30;;;;;;5022264;28;20026;-65
2023/12/09 10:59:09;;;;;;;15.45;11.52;;;7.50;92.10;;;;;;5026719;28;20029;-65
2023/12/09 11:01:35;;;;;;;19.00;12.35;;;7.50;92.00;;;;;;5022711;28;20366;-64
2023/12/09 11:04:03;;;;;;;16.13;11.90;;;7.50;92.00;;;;;;5023442;28;20051;-65
2023/12/09 11:06:33;;;;;;;16.83;12.02;;;7.50;91.90;;;;;;5030374;28;20395;-64
2023/12/09 11:08:59;;;;;;;15.63;11.80;;;7.50;91.90;;;;;;5022132;28;20407;-64
2023/12/09 11:11:26;;;;;;;17.35;12.38;;;7.50;91.90;;;;;;5026870;28;20029;-64
2023/12/09 11:13:53;;;;;;;14.95;11.25;;;7.40;91.80;;;;;;5027856;28;20034;-65
2023/12/09 11:16:21;;;;;;;16.67;11.50;;;7.40;91.80;;;;;;5018140;28;20128;-65
2023/12/09 11:18:57;;;;;;;14.65;10.68;;;7.40;91.80;;;;;;5024378;28;20029;-65
2023/12/09 11:21:25;;;;;;;14.45;10.43;;;7.40;91.80;;;;;;5028124;28;20065;-65
2023/12/09 11:23:52;;;;;;;15.48;10.50;;;7.30;91.80;;;;;;5036233;28;20036;-63
2023/12/09 11:26:26;;;;;;;14.40;10.38;;;7.30;91.70;;;;;;5031920;28;20076;-64
2023/12/09 11:29:09;;;;;;;14.32;10.75;;;7.30;91.80;;;;;;5019122;28;20109;-64
2023/12/09 11:31:39;;;;;;;15.80;10.75;;;7.20;92.20;;;;;;5027370;28;20045;-65
2023/12/09 11:34:06;;;;;;;18.08;11.00;;;7.20;91.90;;;;;;5027263;28;20049;-65
2023/12/09 11:36:38;;;;;;;15.90;11.13;;;7.20;91.90;;;;;;5028013;28;20028;-64
2023/12/09 11:39:11;;;;;;;15.38;11.25;;;7.20;91.90;;;;;;5036856;28;20023;-64
2023/12/09 11:41:38;;;;;;;15.52;11.05;;;7.20;91.90;;;;;;5019848;28;20021;-65
2023/12/09 11:44:04;;;;;;;14.23;10.82;;;7.20;91.90;;;;;;5030912;28;20017;-65
2023/12/09 11:46:33;;;;;;;17.38;11.18;;;7.20;91.90;;;;;;5038170;28;20567;-65
2023/12/09 11:49:00;;;;;;;14.85;10.70;;;7.20;91.90;;;;;;5021728;28;20042;-65
2023/12/09 11:51:27;;;;;;;15.88;10.45;;;7.30;91.90;;;;;;5019958;28;20029;-65
2023/12/09 11:53:57;;;;;;;14.90;10.02;;;7.30;91.90;;;;;;5027964;28;20045;-64
2023/12/09 11:56:26;;;;;;;14.27;10.40;;;7.30;92.20;;;;;;5023482;28;20040;-65
2023/12/09 11:58:52;;;;;;;13.30;9.20;;;7.20;91.80;;;;;;5032716;28;20033;-64
2023/12/09 12:01:21;;;;;;;14.20;9.75;;;7.20;91.70;;;;;;5033112;28;20548;-65
2023/12/09 12:03:48;;;;;;;15.43;9.90;;;7.20;91.70;;;;;;5034865;28;20025;-65
2023/12/09 12:06:16;;;;;;;15.65;10.27;;;7.20;91.70;;;;;;5026380;28;20388;-66
2023/12/09 12:08:46;;;;;;;13.70;9.93;;;7.20;91.70;;;;;;5022707;28;20037;-65
2023/12/09 12:11:13;;;;;;;12.93;9.52;;;7.10;91.70;;;;;;5017157;28;20421;-65
2023/12/09 12:13:40;;;;;;;13.50;9.45;;;7.10;91.70;;;;;;5018538;28;20061;-65
2023/12/09 12:16:06;;;;;;;14.75;9.88;;;7.10;91.70;;;;;;5024740;28;20037;-63
2023/12/09 12:18:33;;;;;;;13.65;9.90;;;7.10;91.70;;;;;;5023985;28;20030;-65
2023/12/09 12:20:58;;;;;;;14.25;9.82;;;7.00;91.70;;;;;;5032823;28;20440;-65
2023/12/09 12:23:24;;;;;;;13.70;9.27;;;7.00;91.80;;;;;;5021904;28;20018;-65
2023/12/09 12:25:54;;;;;;;14.40;9.13;;;7.00;91.80;;;;;;5028765;28;20025;-63
2023/12/09 12:28:20;;;;;;;13.30;9.57;;;7.00;91.80;;;;;;5025450;28;20049;-65
2023/12/09 12:30:49;;;;;;;14.40;9.70;;;7.00;91.80;;;;;;5029402;28;20021;-65
2023/12/09 12:33:15;;;;;;;11.63;8.82;;;7.00;91.80;;;;;;5031395;28;20033;-65
2023/12/09 12:35:41;;;;;;;14.82;9.68;;;6.90;91.80;;;;;;5027303;28;20477;-65
2023/12/09 12:38:06;;;;;;;14.95;9.90;;;7.00;91.80;;;;;;5035397;28;20031;-65